createdAt,value
2023-02-11T00:00:07.644Z,19.50
2023-02-11T00:01:12.314Z,20.30
2023-02-11T00:02:13.918Z,21.10
2023-02-11T00:03:15.650Z,19.08
2023-02-11T00:04:17.402Z,20.13
2023-02-11T00:05:19.931Z,20.48
2023-02-11T00:06:22.423Z,19.35
2023-02-11T00:07:23.994Z,20.48
2023-02-11T00:08:26.001Z,20.30
2023-02-11T00:09:28.899Z,19.48
2023-02-11T00:10:31.978Z,19.73
2023-02-11T00:11:34.381Z,20.40
2023-02-11T00:12:37.623Z,20.33
2023-02-11T00:13:39.198Z,20.00
2023-02-11T00:14:41.080Z,19.95
2023-02-11T00:15:42.647Z,21.27
2023-02-11T00:16:44.298Z,18.88
2023-02-11T00:17:45.905Z,19.40
2023-02-11T00:18:48.380Z,20.02
2023-02-11T00:19:51.425Z,20.23
2023-02-11T00:20:53.010Z,19.05
2023-02-11T00:21:54.589Z,19.42
2023-02-11T00:22:56.140Z,20.48
2023-02-11T00:23:59.937Z,19.02
2023-02-11T00:25:01.840Z,19.10
2023-02-11T00:26:04.478Z,19.73
2023-02-11T00:27:06.050Z,21.70
2023-02-11T00:28:10.909Z,20.13
2023-02-11T00:29:16.563Z,19.40
2023-02-11T00:30:20.117Z,20.77
2023-02-11T00:31:24.555Z,20.13
2023-02-11T00:32:27.188Z,19.23
2023-02-11T00:33:28.895Z,18.83
2023-02-11T00:34:33.960Z,19.65
2023-02-11T00:35:39.054Z,18.73
2023-02-11T00:36:41.200Z,18.83
2023-02-11T00:37:43.732Z,18.67
2023-02-11T00:38:46.270Z,20.02
2023-02-11T00:39:50.453Z,19.63
2023-02-11T00:40:52.036Z,19.23
2023-02-11T00:41:56.656Z,19.80
2023-02-11T00:42:58.312Z,18.70
2023-02-11T00:44:01.044Z,19.00
2023-02-11T00:45:04.164Z,19.35
2023-02-11T00:46:06.638Z,18.98
2023-02-11T00:47:08.267Z,18.65
2023-02-11T00:48:10.075Z,20.02
2023-02-11T00:49:11.729Z,19.55
2023-02-11T00:50:13.806Z,18.95
2023-02-11T00:51:15.557Z,19.25
2023-02-11T00:52:19.694Z,19.30
2023-02-11T00:53:22.728Z,18.75
2023-02-11T00:54:24.852Z,17.45
2023-02-11T00:55:26.452Z,17.80
2023-02-11T00:56:29.467Z,18.30
2023-02-11T00:57:31.074Z,18.38
2023-02-11T00:58:34.293Z,17.92
2023-02-11T00:59:36.035Z,17.90
2023-02-11T01:00:37.640Z,18.27
2023-02-11T01:01:39.999Z,18.35
2023-02-11T01:02:41.713Z,18.55
2023-02-11T01:03:43.323Z,18.15
2023-02-11T01:04:44.867Z,16.95
2023-02-11T01:05:46.747Z,18.10
2023-02-11T01:06:48.298Z,17.67
2023-02-11T01:07:49.960Z,17.90
2023-02-11T01:08:51.586Z,17.35
2023-02-11T01:09:54.123Z,17.77
2023-02-11T01:11:00.604Z,17.63
2023-02-11T01:12:04.388Z,17.50
2023-02-11T01:13:06.765Z,18.15
2023-02-11T01:14:08.781Z,18.48
2023-02-11T01:15:14.521Z,16.73
2023-02-11T01:16:17.038Z,17.58
2023-02-11T01:17:18.651Z,17.60
2023-02-11T01:18:20.758Z,17.98
2023-02-11T01:19:22.358Z,17.05
2023-02-11T01:20:27.423Z,16.23
2023-02-11T01:21:29.851Z,17.15
2023-02-11T01:22:31.479Z,17.65
2023-02-11T01:23:35.853Z,18.15
2023-02-11T01:24:38.907Z,18.20
2023-02-11T01:25:40.872Z,17.58
2023-02-11T01:26:43.787Z,17.33
2023-02-11T01:27:45.783Z,17.77
2023-02-11T01:28:47.663Z,17.10
2023-02-11T01:29:49.222Z,17.35
2023-02-11T01:30:51.999Z,17.60
2023-02-11T01:31:53.658Z,17.42
2023-02-11T01:32:55.299Z,18.52
2023-02-11T01:33:56.899Z,17.70
2023-02-11T01:34:58.476Z,17.65
2023-02-11T01:36:03.473Z,18.40
2023-02-11T01:37:05.032Z,17.65
2023-02-11T01:38:08.112Z,17.27
2023-02-11T01:39:11.202Z,17.20
2023-02-11T01:40:16.784Z,17.27
2023-02-11T01:41:18.373Z,17.77
2023-02-11T01:42:22.691Z,17.48
2023-02-11T01:43:26.010Z,17.60
2023-02-11T01:44:36.876Z,17.53
2023-02-11T01:45:53.641Z,16.48
2023-02-11T01:46:56.482Z,17.65
2023-02-11T01:48:02.726Z,18.60
2023-02-11T01:49:07.341Z,17.52
2023-02-11T01:50:09.037Z,17.67
2023-02-11T01:51:21.249Z,17.33
2023-02-11T01:52:37.136Z,17.58
2023-02-11T01:53:57.434Z,17.42
2023-02-11T01:55:21.976Z,18.40
2023-02-11T01:56:47.425Z,17.52
2023-02-11T01:57:56.403Z,16.92
2023-02-11T01:59:07.598Z,18.13
2023-02-11T02:00:12.071Z,18.38
2023-02-11T02:01:18.365Z,19.17
2023-02-11T02:02:25.297Z,17.90
2023-02-11T02:03:31.846Z,18.30
2023-02-11T02:04:42.332Z,17.92
2023-02-11T02:06:00.220Z,17.52
2023-02-11T02:07:20.023Z,17.35
2023-02-11T02:08:25.607Z,17.02
2023-02-11T02:09:32.404Z,17.20
2023-02-11T02:10:36.688Z,18.27
2023-02-11T02:11:38.521Z,17.30
2023-02-11T02:12:41.404Z,18.48
2023-02-11T02:13:43.128Z,17.98
2023-02-11T02:14:44.767Z,18.83
2023-02-11T02:15:52.719Z,17.80
2023-02-11T02:16:54.651Z,17.20
2023-02-11T02:18:06.815Z,18.20
2023-02-11T02:20:03.319Z,18.80
2023-02-11T02:21:31.015Z,18.55
2023-02-11T02:23:03.605Z,18.40
2023-02-11T02:24:47.633Z,17.83
2023-02-11T02:25:58.347Z,18.08
2023-02-11T02:27:26.538Z,18.48
2023-02-11T02:29:01.214Z,18.63
2023-02-11T02:30:41.501Z,18.33
2023-02-11T02:32:10.826Z,18.33
2023-02-11T02:33:23.002Z,16.67
2023-02-11T02:34:58.405Z,17.55
2023-02-11T02:36:03.077Z,18.30
2023-02-11T02:37:15.949Z,18.27
2023-02-11T02:38:46.755Z,18.77
2023-02-11T02:39:50.393Z,17.55
2023-02-11T02:40:59.041Z,17.17
2023-02-11T02:42:02.222Z,18.52
2023-02-11T02:43:04.956Z,17.25
2023-02-11T02:44:10.010Z,17.33
2023-02-11T02:45:13.731Z,17.77
2023-02-11T02:46:28.999Z,17.63
2023-02-11T02:47:30.590Z,16.95
2023-02-11T02:48:35.854Z,16.70
2023-02-11T02:49:37.420Z,17.83
2023-02-11T02:50:39.090Z,17.42
2023-02-11T02:51:52.840Z,18.15
2023-02-11T02:53:20.411Z,17.85
2023-02-11T02:54:49.333Z,17.98
2023-02-11T02:56:07.682Z,18.98
2023-02-11T02:57:30.680Z,17.30
2023-02-11T02:58:49.059Z,18.05
2023-02-11T03:00:04.022Z,17.58
2023-02-11T03:01:41.030Z,17.37
2023-02-11T03:03:00.200Z,17.33
2023-02-11T03:04:10.709Z,18.38
2023-02-11T03:05:26.743Z,18.23
2023-02-11T03:06:53.486Z,18.83
2023-02-11T03:08:03.056Z,18.17
2023-02-11T03:09:11.077Z,18.73
2023-02-11T03:10:22.678Z,16.92
2023-02-11T03:11:26.313Z,18.20
2023-02-11T03:12:30.970Z,17.15
2023-02-11T03:13:35.732Z,16.98
2023-02-11T03:14:38.855Z,17.80
2023-02-11T03:15:47.844Z,18.20
2023-02-11T03:16:52.276Z,18.20
2023-02-11T03:17:59.367Z,18.13
2023-02-11T03:19:06.157Z,17.00
2023-02-11T03:20:12.503Z,17.20
2023-02-11T03:21:17.628Z,18.10
2023-02-11T03:22:41.342Z,17.50
2023-02-11T03:23:58.045Z,16.23
2023-02-11T03:25:01.907Z,18.98
2023-02-11T03:26:14.944Z,17.63
2023-02-11T03:27:29.201Z,17.92
2023-02-11T03:29:14.846Z,17.40
2023-02-11T03:30:30.850Z,17.65
2023-02-11T03:32:01.573Z,17.95
2023-02-11T03:33:20.091Z,18.23
2023-02-11T03:34:46.518Z,17.25
2023-02-11T03:35:58.667Z,17.58
2023-02-11T03:37:08.547Z,17.23
2023-02-11T03:38:17.564Z,16.98
2023-02-11T03:39:26.948Z,18.23
2023-02-11T03:40:35.421Z,17.05
2023-02-11T03:41:40.202Z,17.55
2023-02-11T03:42:47.655Z,18.05
2023-02-11T03:43:54.724Z,17.33
2023-02-11T03:45:04.134Z,17.65
2023-02-11T03:46:07.678Z,17.85
2023-02-11T03:47:12.711Z,17.35
2023-02-11T03:48:26.612Z,18.33
2023-02-11T03:49:29.952Z,17.58
2023-02-11T03:50:34.599Z,17.73
2023-02-11T03:51:38.591Z,18.00
2023-02-11T03:52:40.437Z,17.73
2023-02-11T03:53:46.551Z,17.48
2023-02-11T03:54:53.735Z,17.70
2023-02-11T03:56:00.104Z,16.85
2023-02-11T03:57:02.870Z,16.77
2023-02-11T03:58:05.100Z,16.67
2023-02-11T03:59:08.071Z,16.70
2023-02-11T04:00:11.510Z,16.55
2023-02-11T04:01:13.392Z,16.80
2023-02-11T04:02:14.999Z,17.23
2023-02-11T04:03:16.765Z,17.52
2023-02-11T04:04:18.932Z,16.63
2023-02-11T04:05:20.911Z,17.80
2023-02-11T04:06:22.482Z,17.10
2023-02-11T04:07:24.188Z,16.77
2023-02-11T04:08:25.803Z,17.65
2023-02-11T04:09:27.437Z,18.35
2023-02-11T04:10:29.369Z,16.55
2023-02-11T04:11:31.090Z,16.33
2023-02-11T04:12:34.959Z,17.42
2023-02-11T04:13:36.603Z,17.30
2023-02-11T04:14:38.528Z,18.17
2023-02-11T04:15:40.149Z,16.88
2023-02-11T04:16:41.920Z,18.17
2023-02-11T04:17:44.783Z,17.02
2023-02-11T04:18:46.357Z,16.95
2023-02-11T04:19:47.916Z,18.30
2023-02-11T04:20:50.732Z,16.90
2023-02-11T04:21:52.308Z,17.42
2023-02-11T04:22:53.835Z,16.83
2023-02-11T04:23:55.390Z,16.50
2023-02-11T04:24:58.358Z,16.88
2023-02-11T04:26:01.209Z,16.40
2023-02-11T04:27:03.088Z,16.75
2023-02-11T04:28:04.655Z,16.95
2023-02-11T04:29:08.757Z,16.90
2023-02-11T04:30:11.085Z,17.27
2023-02-11T04:31:12.978Z,16.92
2023-02-11T04:32:15.201Z,17.95
2023-02-11T04:33:17.099Z,17.33
2023-02-11T04:34:18.775Z,16.75
2023-02-11T04:35:20.804Z,16.70
2023-02-11T04:36:23.693Z,16.45
2023-02-11T04:37:25.273Z,15.95
2023-02-11T04:38:26.835Z,17.83
2023-02-11T04:39:28.400Z,17.40
2023-02-11T04:40:29.939Z,17.70
2023-02-11T04:41:32.070Z,17.17
2023-02-11T04:42:35.908Z,16.63
2023-02-11T04:43:38.182Z,17.42
2023-02-11T04:44:39.811Z,16.80
2023-02-11T04:45:41.814Z,16.35
2023-02-11T04:46:43.526Z,16.90
2023-02-11T04:47:45.102Z,17.63
2023-02-11T04:48:46.953Z,17.00
2023-02-11T04:49:48.633Z,17.33
2023-02-11T04:50:50.465Z,17.38
2023-02-11T04:51:54.328Z,16.40
2023-02-11T04:52:56.069Z,16.73
2023-02-11T04:53:57.733Z,17.30
2023-02-11T04:54:59.257Z,16.98
2023-02-11T04:56:00.889Z,17.15
2023-02-11T04:57:02.750Z,16.33
2023-02-11T04:58:04.347Z,17.45
2023-02-11T04:59:07.692Z,17.10
2023-02-11T05:00:10.787Z,17.48
2023-02-11T05:01:15.330Z,16.60
2023-02-11T05:02:16.960Z,17.95
2023-02-11T05:03:18.786Z,17.00
2023-02-11T05:04:20.411Z,17.00
2023-02-11T05:05:22.173Z,16.58
2023-02-11T05:06:24.175Z,18.35
2023-02-11T05:07:25.768Z,17.77
2023-02-11T05:08:28.490Z,17.42
2023-02-11T05:09:31.444Z,17.23
2023-02-11T05:10:35.931Z,17.92
2023-02-11T05:11:39.388Z,17.45
2023-02-11T05:12:41.863Z,17.02
2023-02-11T05:13:44.021Z,17.02
2023-02-11T05:14:45.692Z,17.45
2023-02-11T05:15:49.958Z,16.65
2023-02-11T05:16:52.084Z,17.35
2023-02-11T05:17:55.062Z,17.48
2023-02-11T05:18:56.767Z,17.17
2023-02-11T05:19:58.305Z,16.38
2023-02-11T05:20:59.852Z,16.88
2023-02-11T05:22:03.413Z,17.38
2023-02-11T05:23:05.881Z,17.88
2023-02-11T05:24:10.006Z,17.08
2023-02-11T05:25:11.589Z,17.23
2023-02-11T05:26:13.974Z,16.52
2023-02-11T05:27:15.544Z,17.50
2023-02-11T05:28:18.229Z,16.63
2023-02-11T05:29:20.370Z,16.77
2023-02-11T05:30:22.077Z,18.58
2023-02-11T05:31:23.661Z,17.05
2023-02-11T05:32:25.843Z,17.23
2023-02-11T05:33:28.007Z,17.83
2023-02-11T05:34:29.661Z,17.35
2023-02-11T05:35:31.261Z,16.85
2023-02-11T05:36:35.551Z,18.08
2023-02-11T05:37:37.149Z,18.33
2023-02-11T05:38:39.700Z,19.40
2023-02-11T05:39:41.501Z,18.85
2023-02-11T05:40:43.433Z,17.55
2023-02-11T05:41:45.801Z,18.35
2023-02-11T05:42:48.678Z,17.17
2023-02-11T05:43:54.732Z,17.55
2023-02-11T05:44:56.314Z,17.90
2023-02-11T05:45:57.959Z,18.40
2023-02-11T05:46:59.537Z,18.53
2023-02-11T05:48:01.327Z,18.52
2023-02-11T05:49:03.376Z,18.75
2023-02-11T05:50:07.737Z,19.30
2023-02-11T05:51:10.724Z,18.08
2023-02-11T05:52:12.280Z,17.60
2023-02-11T05:53:13.957Z,17.95
2023-02-11T05:54:16.131Z,18.55
2023-02-11T05:55:17.933Z,18.02
2023-02-11T05:56:19.719Z,17.73
2023-02-11T05:57:22.319Z,17.17
2023-02-11T05:58:25.114Z,18.08
2023-02-11T05:59:26.653Z,17.67
2023-02-11T06:00:28.926Z,16.92
2023-02-11T06:01:31.688Z,17.98
2023-02-11T06:02:36.325Z,17.25
2023-02-11T06:03:39.104Z,17.50
2023-02-11T06:04:41.522Z,17.02
2023-02-11T06:05:44.595Z,18.17
2023-02-11T06:06:46.902Z,17.25
2023-02-11T06:07:49.988Z,17.35
2023-02-11T06:08:51.632Z,17.23
2023-02-11T06:09:53.264Z,18.13
2023-02-11T06:10:54.996Z,17.77
2023-02-11T06:11:56.583Z,18.50
2023-02-11T06:12:58.123Z,18.70
2023-02-11T06:13:59.710Z,17.65
2023-02-11T06:15:01.598Z,17.63
2023-02-11T06:16:03.506Z,17.48
2023-02-11T06:17:05.153Z,17.75
2023-02-11T06:18:08.199Z,17.85
2023-02-11T06:19:09.782Z,17.50
2023-02-11T06:20:11.665Z,16.55
2023-02-11T06:21:13.313Z,17.15
2023-02-11T06:22:15.196Z,18.52
2023-02-11T06:23:17.059Z,17.05
2023-02-11T06:24:33.142Z,18.40
2023-02-11T06:25:40.712Z,18.48
2023-02-11T06:26:42.483Z,18.20
2023-02-11T06:27:44.078Z,18.55
2023-02-11T06:28:46.206Z,18.65
2023-02-11T06:29:48.265Z,18.08
2023-02-11T06:30:49.917Z,18.13
2023-02-11T06:31:51.624Z,17.42
2023-02-11T06:32:53.323Z,18.10
2023-02-11T06:33:57.333Z,17.60
2023-02-11T06:35:00.626Z,18.00
2023-02-11T06:36:03.702Z,20.90
2023-02-11T06:37:05.749Z,20.20
2023-02-11T06:38:09.694Z,21.23
2023-02-11T06:39:12.695Z,25.42
2023-02-11T06:40:14.454Z,26.42
2023-02-11T06:41:20.112Z,26.50
2023-02-11T06:42:22.023Z,26.48
2023-02-11T06:43:23.606Z,26.27
2023-02-11T06:44:25.213Z,24.90
2023-02-11T06:45:26.800Z,20.05
2023-02-11T06:46:28.524Z,26.10
2023-02-11T06:47:30.127Z,25.60
2023-02-11T06:48:31.740Z,29.42
2023-02-11T06:49:35.594Z,31.95
2023-02-11T06:50:38.310Z,21.63
2023-02-11T06:51:40.315Z,25.70
2023-02-11T06:52:41.968Z,27.25
2023-02-11T06:53:48.039Z,32.33
2023-02-11T06:54:49.604Z,25.95
2023-02-11T06:55:51.418Z,34.28
2023-02-11T06:56:53.906Z,34.35
2023-02-11T06:57:55.499Z,31.13
2023-02-11T06:58:57.792Z,22.98
2023-02-11T06:59:59.578Z,23.67
2023-02-11T07:01:06.845Z,18.60
2023-02-11T07:02:10.610Z,28.90
2023-02-11T07:03:12.429Z,29.85
2023-02-11T07:04:15.910Z,25.08
2023-02-11T07:05:20.036Z,27.08
2023-02-11T07:06:25.206Z,22.85
2023-02-11T07:07:27.877Z,23.52
2023-02-11T07:08:29.552Z,23.55
2023-02-11T07:09:32.315Z,19.45
2023-02-11T07:10:36.935Z,20.90
2023-02-11T07:11:39.371Z,20.13
2023-02-11T07:12:41.351Z,20.48
2023-02-11T07:13:43.052Z,19.45
2023-02-11T07:14:44.692Z,19.42
2023-02-11T07:15:46.331Z,19.23
2023-02-11T07:16:48.125Z,18.75
2023-02-11T07:17:50.088Z,19.80
2023-02-11T07:18:51.749Z,19.10
2023-02-11T07:19:53.349Z,20.05
2023-02-11T07:20:54.930Z,18.85
2023-02-11T07:21:56.800Z,18.75
2023-02-11T07:23:00.213Z,18.65
2023-02-11T07:24:02.829Z,20.00
2023-02-11T07:25:04.795Z,18.55
2023-02-11T07:26:11.838Z,19.50
2023-02-11T07:27:13.759Z,19.20
2023-02-11T07:28:15.344Z,19.85
2023-02-11T07:29:17.111Z,19.63
2023-02-11T07:30:20.543Z,19.13
2023-02-11T07:31:27.213Z,17.93
2023-02-11T07:32:28.916Z,19.00
2023-02-11T07:33:30.538Z,18.53
2023-02-11T07:34:32.227Z,18.83
2023-02-11T07:35:33.972Z,19.02
2023-02-11T07:36:36.993Z,19.25
2023-02-11T07:37:42.742Z,17.75
2023-02-11T07:38:44.750Z,18.45
2023-02-11T07:39:47.159Z,18.95
2023-02-11T07:40:48.855Z,18.83
2023-02-11T07:41:50.542Z,20.35
2023-02-11T07:42:52.933Z,19.52
2023-02-11T07:43:55.233Z,18.67
2023-02-11T07:44:59.668Z,18.92
2023-02-11T07:46:11.314Z,18.65
2023-02-11T07:47:12.856Z,19.33
2023-02-11T07:48:15.992Z,18.83
2023-02-11T07:49:17.972Z,19.90
2023-02-11T07:50:20.785Z,20.58
2023-02-11T07:51:27.956Z,19.52
2023-02-11T07:52:30.816Z,19.83
2023-02-11T07:53:32.409Z,19.50
2023-02-11T07:54:34.069Z,19.42
2023-02-11T07:55:36.019Z,19.60
2023-02-11T07:56:38.036Z,54.97
2023-02-11T07:57:41.340Z,54.78
2023-02-11T07:58:43.281Z,43.35
2023-02-11T07:59:44.871Z,48.15
2023-02-11T08:00:46.558Z,63.00
2023-02-11T08:01:50.522Z,56.80
2023-02-11T08:02:52.146Z,52.10
2023-02-11T08:03:55.305Z,33.42
2023-02-11T08:04:56.897Z,50.03
2023-02-11T08:06:01.998Z,32.67
2023-02-11T08:07:03.661Z,30.35
2023-02-11T08:08:05.478Z,28.65
2023-02-11T08:09:11.721Z,31.75
2023-02-11T08:10:13.332Z,31.15
2023-02-11T08:11:18.572Z,31.60
2023-02-11T08:12:21.739Z,28.40
2023-02-11T08:13:23.699Z,28.00
2023-02-11T08:14:27.293Z,25.63
2023-02-11T08:15:28.936Z,23.38
2023-02-11T08:16:35.774Z,22.48
2023-02-11T08:17:37.392Z,19.48
2023-02-11T08:18:38.973Z,18.75
2023-02-11T08:19:40.553Z,18.65
2023-02-11T08:20:42.121Z,18.38
2023-02-11T08:21:45.264Z,18.35
2023-02-11T08:22:47.665Z,19.60
2023-02-11T08:23:49.867Z,20.40
2023-02-11T08:24:52.511Z,20.75
2023-02-11T08:25:55.907Z,19.58
2023-02-11T08:26:57.649Z,19.50
2023-02-11T08:28:00.506Z,21.35
2023-02-11T08:29:07.609Z,19.45
2023-02-11T08:30:09.975Z,18.48
2023-02-11T08:31:20.700Z,18.15
2023-02-11T08:32:25.761Z,20.60
2023-02-11T08:33:27.364Z,20.83
2023-02-11T08:34:30.415Z,21.17
2023-02-11T08:35:34.340Z,19.55
2023-02-11T08:36:42.503Z,20.30
2023-02-11T08:37:44.124Z,18.88
2023-02-11T08:38:46.266Z,19.98
2023-02-11T08:39:48.096Z,19.65
2023-02-11T08:40:50.049Z,20.70
2023-02-11T08:41:54.285Z,19.73
2023-02-11T08:42:55.928Z,19.17
2023-02-11T08:43:57.498Z,18.50
2023-02-11T08:44:59.875Z,17.08
2023-02-11T08:46:02.632Z,17.45
2023-02-11T08:47:06.886Z,18.35
2023-02-11T08:48:11.595Z,17.77
2023-02-11T08:49:14.134Z,19.45
2023-02-11T08:50:15.841Z,17.98
2023-02-11T08:51:20.781Z,17.17
2023-02-11T08:52:22.639Z,17.98
2023-02-11T08:53:24.731Z,19.63
2023-02-11T08:54:26.606Z,18.77
2023-02-11T08:55:29.188Z,19.02
2023-02-11T08:56:32.475Z,19.52
2023-02-11T08:57:34.396Z,19.05
2023-02-11T08:58:36.099Z,18.85
2023-02-11T08:59:40.096Z,18.98
2023-02-11T09:00:44.678Z,21.48
2023-02-11T09:01:47.882Z,21.13
2023-02-11T09:02:49.865Z,24.58
2023-02-11T09:03:54.792Z,19.25
2023-02-11T09:04:56.996Z,21.67
2023-02-11T09:05:59.779Z,21.13
2023-02-11T09:07:01.469Z,20.40
2023-02-11T09:08:03.015Z,19.73
2023-02-11T09:09:05.024Z,21.38
2023-02-11T09:10:06.814Z,20.55
2023-02-11T09:11:10.277Z,20.80
2023-02-11T09:12:12.128Z,19.40
2023-02-11T09:13:13.988Z,19.35
2023-02-11T09:14:25.235Z,19.48
2023-02-11T09:15:28.487Z,19.90
2023-02-11T09:16:32.696Z,17.88
2023-02-11T09:17:35.706Z,17.38
2023-02-11T09:18:37.661Z,17.88
2023-02-11T09:19:39.627Z,19.08
2023-02-11T09:20:41.195Z,17.20
2023-02-11T09:21:42.921Z,15.55
2023-02-11T09:22:44.564Z,16.92
2023-02-11T09:23:50.366Z,17.98
2023-02-11T09:24:53.286Z,18.33
2023-02-11T09:25:57.254Z,18.95
2023-02-11T09:26:58.859Z,18.80
2023-02-11T09:28:01.081Z,17.95
2023-02-11T09:29:17.007Z,17.25
2023-02-11T09:30:19.735Z,18.13
2023-02-11T09:31:27.186Z,18.55
2023-02-11T09:32:31.262Z,18.58
2023-02-11T09:33:33.887Z,19.42
2023-02-11T09:34:35.464Z,18.25
2023-02-11T09:35:38.135Z,17.92
2023-02-11T09:36:40.839Z,17.27
2023-02-11T09:37:43.734Z,17.52
2023-02-11T09:38:46.678Z,17.00
2023-02-11T09:39:48.468Z,18.33
2023-02-11T09:40:50.670Z,19.20
2023-02-11T09:42:10.520Z,17.98
2023-02-11T09:43:22.141Z,17.98
2023-02-11T09:44:29.561Z,17.70
2023-02-11T09:45:37.508Z,18.45
2023-02-11T09:46:42.673Z,17.27
2023-02-11T09:47:51.525Z,17.38
2023-02-11T09:48:56.133Z,17.58
2023-02-11T09:50:06.908Z,18.58
2023-02-11T09:51:42.255Z,18.27
2023-02-11T09:52:58.725Z,17.90
2023-02-11T09:54:08.247Z,21.48
2023-02-11T09:55:39.468Z,20.08
2023-02-11T09:56:43.542Z,18.48
2023-02-11T09:57:45.290Z,19.52
2023-02-11T09:58:47.727Z,18.70
2023-02-11T09:59:49.470Z,18.00
2023-02-11T10:01:39.900Z,18.13
2023-02-11T10:03:03.791Z,18.27
2023-02-11T10:05:09.709Z,18.30
2023-02-11T10:06:50.144Z,18.67
2023-02-11T10:08:13.270Z,17.88
2023-02-11T10:09:42.477Z,18.30
2023-02-11T10:11:06.298Z,20.40
2023-02-11T10:12:20.567Z,18.67
2023-02-11T10:13:43.719Z,18.00
2023-02-11T10:15:12.975Z,19.13
2023-02-11T10:16:37.773Z,17.83
2023-02-11T10:18:04.096Z,17.75
2023-02-11T10:19:23.937Z,16.10
2023-02-11T10:20:39.777Z,16.00
2023-02-11T10:22:00.261Z,17.20
2023-02-11T10:25:00.290Z,17.17
2023-02-11T10:26:04.853Z,20.08
2023-02-11T10:27:16.449Z,21.30
2023-02-11T10:28:23.354Z,20.55
2023-02-11T10:29:49.337Z,19.40
2023-02-11T10:31:28.007Z,16.15
2023-02-11T10:32:47.741Z,15.68
2023-02-11T10:34:01.384Z,17.95
2023-02-11T10:35:15.226Z,18.55
2023-02-11T10:36:18.753Z,15.65
2023-02-11T10:37:20.368Z,15.97
2023-02-11T10:38:22.123Z,15.38
2023-02-11T10:39:26.984Z,18.67
2023-02-11T10:40:31.051Z,18.88
2023-02-11T10:41:42.968Z,16.02
2023-02-11T10:42:49.280Z,15.50
2023-02-11T10:43:52.028Z,15.35
2023-02-11T10:45:03.780Z,15.38
2023-02-11T10:46:06.209Z,15.00
2023-02-11T10:47:23.609Z,15.38
2023-02-11T10:48:43.230Z,15.23
2023-02-11T10:49:46.718Z,14.55
2023-02-11T10:50:48.674Z,14.50
2023-02-11T10:52:07.762Z,14.93
2023-02-11T10:53:13.748Z,13.55
2023-02-11T10:54:21.811Z,13.45
2023-02-11T10:55:27.939Z,12.95
2023-02-11T10:56:54.808Z,15.15
2023-02-11T10:58:00.452Z,14.35
2023-02-11T10:59:23.075Z,14.90
2023-02-11T11:00:40.963Z,14.68
2023-02-11T11:01:54.345Z,14.23
2023-02-11T11:02:59.657Z,14.48
2023-02-11T11:04:01.394Z,13.18
2023-02-11T11:05:19.176Z,13.93
2023-02-11T11:06:35.761Z,14.38
2023-02-11T11:07:37.641Z,14.27
2023-02-11T11:08:43.427Z,14.05
2023-02-11T11:09:48.346Z,13.20
2023-02-11T11:11:05.990Z,12.50
2023-02-11T11:12:43.962Z,13.18
2023-02-11T11:14:00.466Z,12.68
2023-02-11T11:15:10.846Z,13.00
2023-02-11T11:16:12.746Z,11.63
2023-02-11T11:17:19.007Z,11.10
2023-02-11T11:18:23.276Z,12.80
2023-02-11T11:19:26.088Z,11.98
2023-02-11T11:20:33.944Z,12.65
2023-02-11T11:21:45.179Z,12.43
2023-02-11T11:22:48.724Z,12.27
2023-02-11T11:24:18.212Z,12.77
2023-02-11T11:25:29.765Z,13.20
2023-02-11T11:26:44.539Z,12.27
2023-02-11T11:27:50.680Z,11.82
2023-02-11T11:28:57.731Z,10.95
2023-02-11T11:30:01.562Z,11.40
2023-02-11T11:31:03.377Z,11.57
2023-02-11T11:32:30.823Z,12.38
2023-02-11T11:33:36.048Z,12.57
2023-02-11T11:34:42.998Z,12.75
2023-02-11T11:35:57.529Z,13.10
2023-02-11T11:37:12.711Z,12.60
2023-02-11T11:38:15.435Z,13.20
2023-02-11T11:39:33.021Z,12.48
2023-02-11T11:40:35.450Z,13.40
2023-02-11T11:41:37.696Z,13.43
2023-02-11T11:42:42.466Z,12.60
2023-02-11T11:44:11.907Z,12.45
2023-02-11T11:45:18.782Z,11.68
2023-02-11T11:46:30.607Z,12.25
2023-02-11T11:47:55.913Z,11.15
2023-02-11T11:49:23.627Z,10.88
2023-02-11T11:50:35.237Z,11.57
2023-02-11T11:51:39.955Z,12.77
2023-02-11T11:52:56.527Z,11.45
2023-02-11T11:54:04.349Z,12.05
2023-02-11T11:55:20.995Z,12.27
2023-02-11T11:56:26.332Z,12.55
2023-02-11T11:57:29.899Z,13.50
2023-02-11T11:58:35.805Z,12.88
2023-02-11T11:59:38.829Z,12.23
2023-02-11T12:00:52.709Z,13.27
2023-02-11T12:02:40.100Z,13.45
2023-02-11T12:04:15.665Z,12.40
2023-02-11T12:05:42.159Z,12.30
2023-02-11T12:07:09.893Z,13.38
2023-02-11T12:08:24.671Z,13.27
2023-02-11T12:10:14.637Z,13.05
2023-02-11T12:11:24.067Z,13.50
2023-02-11T12:12:56.273Z,13.48
2023-02-11T12:15:06.671Z,12.55
2023-02-11T12:16:17.359Z,13.68
2023-02-11T12:17:56.899Z,12.93
2023-02-11T12:19:43.020Z,13.98
2023-02-11T12:21:03.878Z,13.55
2023-02-11T12:22:32.439Z,13.68
2023-02-11T12:24:11.371Z,12.13
2023-02-11T12:25:26.843Z,10.98
2023-02-11T12:26:36.296Z,11.07
2023-02-11T12:27:54.771Z,12.63
2023-02-11T12:29:17.821Z,11.50
2023-02-11T12:30:41.022Z,12.52
2023-02-11T21:57:21.377Z,7.75
2023-02-11T21:58:23.290Z,7.53
2023-02-11T21:59:25.352Z,7.35
2023-02-11T22:00:27.202Z,6.60
2023-02-11T22:01:33.130Z,7.80
2023-02-11T22:02:34.773Z,7.15
2023-02-11T22:03:36.468Z,7.05
2023-02-11T22:04:38.717Z,7.13
2023-02-11T22:59:59.064Z,9.40
2023-02-11T23:01:01.023Z,8.45
2023-02-11T23:02:02.726Z,9.00
2023-02-11T23:03:05.582Z,8.80
2023-02-11T23:04:13.367Z,8.70
2023-02-11T23:05:15.406Z,9.13
2023-02-11T23:06:18.301Z,10.38
2023-02-11T23:07:20.101Z,9.38
2023-02-11T23:08:21.661Z,10.30
2023-02-11T23:09:23.360Z,9.65
2023-02-11T23:10:25.422Z,9.25
2023-02-11T23:11:30.358Z,9.60
2023-02-11T23:12:32.025Z,9.50
2023-02-11T23:13:37.460Z,9.75
2023-02-11T23:14:39.729Z,8.80
2023-02-11T23:15:43.635Z,8.40
2023-02-11T23:16:45.414Z,11.15
2023-02-11T23:17:47.078Z,8.23
2023-02-11T23:18:50.211Z,8.90
2023-02-11T23:19:51.936Z,9.27
2023-02-11T23:20:56.165Z,9.63
2023-02-11T23:21:58.732Z,9.13
2023-02-11T23:23:00.463Z,11.25
2023-02-11T23:24:08.125Z,10.65
2023-02-11T23:25:09.759Z,11.13
2023-02-11T23:26:14.516Z,10.20
2023-02-11T23:27:17.457Z,12.18
2023-02-11T23:28:20.165Z,12.25
2023-02-11T23:29:21.779Z,11.93
2023-02-11T23:30:23.735Z,11.80
2023-02-11T23:31:31.051Z,11.10
2023-02-11T23:32:32.887Z,12.07
2023-02-11T23:33:36.767Z,10.73
2023-02-11T23:34:39.460Z,9.68
2023-02-11T23:35:41.415Z,10.63
2023-02-11T23:36:44.486Z,9.98
2023-02-11T23:37:46.198Z,8.88
2023-02-11T23:38:48.757Z,8.82
2023-02-11T23:39:50.577Z,8.38
2023-02-11T23:40:52.153Z,8.93
2023-02-11T23:41:58.950Z,8.02
2023-02-11T23:43:00.572Z,9.00
2023-02-11T23:44:02.224Z,9.05
2023-02-11T23:45:05.689Z,9.38
2023-02-11T23:46:10.796Z,11.48
2023-02-11T23:47:13.667Z,10.45
2023-02-11T23:48:15.707Z,8.80
2023-02-11T23:49:18.393Z,10.50
2023-02-11T23:50:23.492Z,10.43
2023-02-11T23:51:25.413Z,9.90
2023-02-11T23:52:27.440Z,10.50
2023-02-11T23:53:29.434Z,11.32
2023-02-11T23:54:31.572Z,11.98
2023-02-11T23:55:40.276Z,10.45
2023-02-11T23:56:44.890Z,10.40
2023-02-11T23:57:47.932Z,9.55
2023-02-11T23:58:52.308Z,10.30
2023-02-11T23:59:55.351Z,9.10
